Time;durP1;ratioP1;P1;durP2;ratioP2;P2;SDS_P1;SDS_P2;PMS_P1;PMS_P2;Temp;Humidity;BMP_temperature;BMP_pressure;BME280_temperature;BME280_humidity;BME280_pressure;Samples;Min_cycle;Max_cycle;Signal;HPM_P1;HPM_P2
2021/10/27 06:48:08;;;;;;;6.03;3.73;;;;;;;;;;5062100;28;20714;-48
2021/10/27 06:50:34;;;;;;;5.80;4.03;;;;;;;;;;5065664;28;20420;-47
2021/10/27 06:53:00;;;;;;;6.35;3.97;;;;;;;;;;5065394;28;20365;-48
2021/10/27 06:55:26;;;;;;;4.93;3.88;;;;;;;;;;5065531;28;20419;-48
2021/10/27 06:57:54;;;;;;;5.97;3.70;;;;;;;;;;5065663;28;20391;-47
2021/10/27 07:00:28;;;;;;;5.35;3.63;;;;;;;;;;5065987;28;20414;-48
2021/10/27 07:16:11;;;;;;;4.32;3.65;;;;;;;;;;5052180;28;20376;-47
2021/10/27 07:18:37;;;;;;;5.07;3.95;;;;;;;;;;5060880;28;20424;-47
2021/10/27 07:21:03;;;;;;;4.63;3.80;;;;;;;;;;5058730;28;20389;-46
2021/10/27 07:23:30;;;;;;;5.63;4.00;;;;;;;;;;5062636;28;20393;-48
2021/10/27 07:25:57;;;;;;;5.20;3.70;;;;;;;;;;5057516;28;20393;-47
2021/10/27 07:28:27;;;;;;;5.07;3.90;;;;;;;;;;5057901;28;20429;-47
2021/10/27 07:30:57;;;;;;;5.13;4.10;;;;;;;;;;5059773;28;20869;-47
2021/10/27 07:33:26;;;;;;;4.68;3.47;;;;;;;;;;5056294;28;20792;-47
2021/10/27 07:36:01;;;;;;;4.47;3.70;;;;;;;;;;5053658;28;20420;-46
2021/10/27 07:41:11;;;;;;;4.63;3.90;;;;;;;;;;5057843;28;20912;-49
2021/10/27 07:43:38;;;;;;;5.32;3.70;;;;;;;;;;5042675;28;20769;-50
2021/10/27 07:46:04;;;;;;;4.95;3.80;;;;;;;;;;5048071;28;20373;-48
2021/10/27 07:48:31;;;;;;;6.85;5.30;;;;;;;;;;5049686;28;20835;-49
2021/10/27 07:50:58;;;;;;;5.38;3.60;;;;;;;;;;5049888;28;20925;-56
2021/10/27 07:53:27;;;;;;;4.77;3.70;;;;;;;;;;5049401;28;20519;-54
2021/10/27 07:55:54;;;;;;;4.78;3.50;;;;;;;;;;5050303;28;20468;-57
2021/10/27 07:58:21;;;;;;;4.63;3.47;;;;;;;;;;5049856;28;20465;-56
2021/10/27 08:00:48;;;;;;;5.05;3.70;;;;;;;;;;5050351;28;20366;-60
2021/10/27 08:03:14;;;;;;;5.72;3.67;;;;;;;;;;5049882;28;20373;-62
2021/10/27 08:05:41;;;;;;;4.60;3.50;;;;;;;;;;5050062;28;20755;-63
2021/10/27 08:08:12;;;;;;;4.35;3.47;;;;;;;;;;5048946;28;20734;-59
2021/10/27 08:10:38;;;;;;;4.40;3.28;;;;;;;;;;5050124;28;20897;-62
2021/10/27 08:13:05;;;;;;;4.40;3.30;;;;;;;;;;5049949;28;20458;-60
2021/10/27 08:15:32;;;;;;;4.15;3.47;;;;;;;;;;5050579;28;20377;-61
2021/10/27 08:17:58;;;;;;;4.10;3.40;;;;;;;;;;5048505;28;20477;-60
2021/10/27 08:20:26;;;;;;;5.20;3.00;;;;;;;;;;5050529;28;20403;-63
2021/10/27 08:22:57;;;;;;;5.07;3.25;;;;;;;;;;5050173;28;20424;-62
2021/10/27 08:25:46;;;;;;;4.30;3.03;;;;;;;;;;5050118;28;20761;-60
2021/10/27 08:28:14;;;;;;;4.40;3.00;;;;;;;;;;5049498;28;20477;-60
2021/10/27 08:33:34;;;;;;;3.90;2.90;;;;;;;;;;5043909;28;20384;-58
2021/10/27 08:36:00;;;;;;;4.57;3.10;;;;;;;;;;5031439;28;20379;-60
2021/10/27 08:38:27;;;;;;;4.35;3.15;;;;;;;;;;5050142;28;20369;-58
2021/10/27 08:40:55;;;;;;;4.38;2.90;;;;;;;;;;5048041;28;20769;-60
2021/10/27 08:43:21;;;;;;;3.50;2.47;;;;;;;;;;5050355;28;20453;-60
2021/10/27 08:45:47;;;;;;;3.60;2.70;;;;;;;;;;5049785;28;20886;-61
2021/10/27 08:48:14;;;;;;;3.50;2.80;;;;;;;;;;5049749;28;20369;-60
2021/10/27 08:50:41;;;;;;;3.53;2.60;;;;;;;;;;5049356;28;20413;-62
2021/10/27 08:53:07;;;;;;;3.58;2.65;;;;;;;;;;5050019;28;20380;-62
2021/10/27 08:55:37;;;;;;;3.88;2.60;;;;;;;;;;5048549;28;20452;-59
2021/10/27 08:58:04;;;;;;;3.60;2.80;;;;;;;;;;5049394;28;20380;-57
2021/10/27 09:01:10;;;;;;;3.35;2.58;;;;;;;;;;5047738;28;20455;-58
2021/10/27 09:06:17;;;;;;;3.50;2.60;;;;;;;;;;5049248;28;20408;-57
2021/10/27 10:06:17;;;;;;;2.70;2.13;;;;;;;;;;5045336;28;20817;-56
2021/10/27 10:08:47;;;;;;;3.42;2.30;;;;;;;;;;5046205;28;20391;-54
2021/10/27 10:11:13;;;;;;;2.95;2.03;;;;;;;;;;5045411;28;20489;-56
2021/10/27 10:13:39;;;;;;;3.00;2.27;;;;;;;;;;5047490;28;20432;-58
2021/10/27 10:16:08;;;;;;;2.95;2.28;;;;;;;;;;5047459;28;20757;-58
2021/10/27 10:18:35;;;;;;;3.30;2.00;;;;;;;;;;5046984;28;20449;-57
2021/10/27 10:21:01;;;;;;;2.90;2.00;;;;;;;;;;5046526;28;20686;-57
2021/10/27 10:23:27;;;;;;;2.88;2.15;;;;;;;;;;5046749;28;20381;-56
2021/10/27 10:25:56;;;;;;;2.63;2.13;;;;;;;;;;5046889;28;20388;-56
2021/10/27 10:28:25;;;;;;;2.58;2.10;;;;;;;;;;5046173;28;20401;-56
2021/10/27 10:30:56;;;;;;;2.42;2.10;;;;;;;;;;5042988;28;20421;-66
2021/10/27 10:33:35;;;;;;;3.83;2.15;;;;;;;;;;5046417;28;20392;-65
2021/10/27 10:36:05;;;;;;;4.18;2.13;;;;;;;;;;5041820;28;20421;-62
2021/10/27 10:39:03;;;;;;;2.75;1.92;;;;;;;;;;5045658;28;20386;-67
2021/10/27 10:41:44;;;;;;;3.15;2.30;;;;;;;;;;5045810;28;20520;-68
2021/10/27 10:58:50;;;;;;;2.72;2.10;;;;;;;;;;5017195;28;20536;-67
2021/10/27 11:02:29;;;;;;;3.35;2.20;;;;;;;;;;4990676;28;20476;-67
2021/10/27 11:24:11;;;;;;;2.60;1.90;;;;;;;;;;5050571;28;20372;-66
2021/10/27 11:37:45;;;;;;;3.25;1.90;;;;;;;;;;5050418;28;20445;-64
2021/10/27 11:40:43;;;;;;;2.60;1.80;;;;;;;;;;5043814;28;20730;-64
2021/10/27 11:45:41;;;;;;;2.70;2.00;;;;;;;;;;5050057;28;20378;-64
2021/10/27 11:48:21;;;;;;;3.03;2.00;;;;;;;;;;5050421;28;20464;-63
2021/10/27 11:50:48;;;;;;;2.80;1.98;;;;;;;;;;5050011;28;20405;-65
2021/10/27 11:53:18;;;;;;;2.60;1.70;;;;;;;;;;5050218;28;20385;-66
2021/10/27 11:55:44;;;;;;;3.03;1.83;;;;;;;;;;5049456;28;20719;-55
2021/10/27 11:58:13;;;;;;;3.05;1.80;;;;;;;;;;5050011;28;20366;-54
2021/10/27 12:00:50;;;;;;;3.47;2.10;;;;;;;;;;5049323;28;20401;-61
2021/10/27 12:03:22;;;;;;;3.50;2.33;;;;;;;;;;5047835;28;20401;-61
2021/10/27 12:08:39;;;;;;;4.30;2.20;;;;;;;;;;5050198;28;20548;-59
2021/10/27 12:19:02;;;;;;;2.75;1.90;;;;;;;;;;5028632;28;20445;-59
2021/10/27 12:21:29;;;;;;;3.05;2.00;;;;;;;;;;5049904;28;20556;-61
2021/10/27 12:23:56;;;;;;;4.05;2.03;;;;;;;;;;5040642;28;20399;-58
2021/10/27 12:26:24;;;;;;;3.03;2.00;;;;;;;;;;5046385;28;20830;-59
2021/10/27 12:29:13;;;;;;;3.95;1.90;;;;;;;;;;5049442;28;20374;-59
2021/10/27 12:31:40;;;;;;;2.90;2.00;;;;;;;;;;5030115;28;20446;-63
2021/10/27 12:34:28;;;;;;;2.42;1.90;;;;;;;;;;5042722;28;20451;-57
2021/10/27 12:36:58;;;;;;;2.95;1.90;;;;;;;;;;5038863;28;20370;-61
2021/10/27 12:39:37;;;;;;;3.05;2.15;;;;;;;;;;5039420;28;20385;-60
2021/10/27 12:42:09;;;;;;;2.90;2.10;;;;;;;;;;5048941;28;20593;-58
2021/10/27 12:44:43;;;;;;;2.75;1.95;;;;;;;;;;5049053;28;20560;-65
2021/10/27 12:47:16;;;;;;;4.25;2.90;;;;;;;;;;5049503;28;20382;-59
2021/10/27 12:49:43;;;;;;;3.90;3.25;;;;;;;;;;5047657;28;20382;-65
2021/10/27 12:52:32;;;;;;;4.50;3.47;;;;;;;;;;5048656;28;20425;-66
2021/10/27 12:55:06;;;;;;;5.00;3.60;;;;;;;;;;5048632;28;20378;-59
2021/10/27 12:57:41;;;;;;;5.07;3.58;;;;;;;;;;5047325;28;20377;-59
2021/10/27 13:00:47;;;;;;;4.38;3.20;;;;;;;;;;5035990;28;20376;-63
2021/10/27 13:03:36;;;;;;;4.95;3.33;;;;;;;;;;5047680;28;20845;-60
2021/10/27 13:11:19;;;;;;;4.22;3.20;;;;;;;;;;5038548;28;20518;-53
2021/10/27 13:29:47;;;;;;;4.88;3.10;;;;;;;;;;5048081;28;20385;-55
2021/10/27 13:32:19;;;;;;;5.90;3.28;;;;;;;;;;5044602;28;20425;-51
2021/10/27 13:34:45;;;;;;;4.30;3.20;;;;;;;;;;5047522;28;20381;-55
2021/10/27 13:37:12;;;;;;;4.55;3.30;;;;;;;;;;5048414;28;20818;-57
2021/10/27 13:39:39;;;;;;;4.60;3.65;;;;;;;;;;5047189;28;20455;-56
2021/10/27 13:42:22;;;;;;;6.43;4.32;;;;;;;;;;5045618;28;20409;-62
2021/10/27 14:06:27;;;;;;;5.47;4.28;;;;;;;;;;5047237;28;20435;-59
2021/10/27 14:09:00;;;;;;;5.60;4.88;;;;;;;;;;5047341;28;20374;-61
2021/10/27 14:14:24;;;;;;;5.68;4.82;;;;;;;;;;5036950;28;20389;-59
2021/10/27 14:19:36;;;;;;;5.57;4.40;;;;;;;;;;5047236;28;20370;-60
2021/10/27 15:20:04;;;;;;;4.93;3.80;;;;;;;;;;5046141;28;20517;-59
2021/10/27 15:28:00;;;;;;;4.00;3.60;;;;;;;;;;5050651;28;20393;-59
2021/10/27 15:41:37;;;;;;;3.97;3.47;;;;;;;;;;5049863;28;20872;-58
2021/10/27 15:44:23;;;;;;;4.30;3.40;;;;;;;;;;5050479;28;20438;-59
2021/10/27 15:52:22;;;;;;;4.82;2.83;;;;;;;;;;5050079;28;20416;-59
2021/10/27 15:54:48;;;;;;;4.70;2.85;;;;;;;;;;5049943;28;20381;-59
2021/10/27 15:57:14;;;;;;;4.25;2.88;;;;;;;;;;5050430;28;20403;-57
2021/10/27 15:59:41;;;;;;;4.80;2.80;;;;;;;;;;5051401;28;20362;-54
2021/10/27 16:02:08;;;;;;;4.88;2.78;;;;;;;;;;5050373;28;20423;-60
2021/10/27 16:04:37;;;;;;;3.97;2.95;;;;;;;;;;5048787;28;20879;-59
2021/10/27 16:07:06;;;;;;;4.30;3.00;;;;;;;;;;5049854;28;20796;-55
2021/10/27 16:09:39;;;;;;;4.47;3.15;;;;;;;;;;5049231;28;20552;-53
2021/10/27 16:12:05;;;;;;;5.05;3.47;;;;;;;;;;5048164;28;20436;-54
2021/10/27 16:14:32;;;;;;;5.18;3.17;;;;;;;;;;5049000;28;20381;-54
2021/10/27 16:16:58;;;;;;;4.07;3.28;;;;;;;;;;5048662;28;20380;-51
2021/10/27 16:19:24;;;;;;;4.47;3.00;;;;;;;;;;5049326;28;20413;-52
2021/10/27 16:21:50;;;;;;;4.03;3.05;;;;;;;;;;5049297;28;20703;-54
2021/10/27 16:24:17;;;;;;;5.73;3.50;;;;;;;;;;5049395;28;20741;-49
2021/10/27 16:26:44;;;;;;;5.25;3.70;;;;;;;;;;5036186;28;20449;-57
2021/10/27 16:29:10;;;;;;;5.25;3.40;;;;;;;;;;5049471;28;20370;-52
2021/10/27 16:31:36;;;;;;;5.87;3.50;;;;;;;;;;5047881;28;20964;-50
2021/10/27 16:34:03;;;;;;;5.10;3.23;;;;;;;;;;5049568;28;20382;-51
2021/10/27 16:36:29;;;;;;;5.63;3.35;;;;;;;;;;5049027;28;20385;-51
2021/10/27 16:38:56;;;;;;;5.03;3.33;;;;;;;;;;5048434;28;20370;-49
2021/10/27 16:41:22;;;;;;;5.00;3.60;;;;;;;;;;5048423;28;20409;-51
2021/10/27 16:43:48;;;;;;;6.20;3.90;;;;;;;;;;5048798;28;20805;-49
2021/10/27 16:46:15;;;;;;;4.78;3.70;;;;;;;;;;5049060;28;20377;-50
2021/10/27 16:48:41;;;;;;;5.90;3.50;;;;;;;;;;5049218;28;20845;-52
2021/10/27 16:51:10;;;;;;;4.28;3.10;;;;;;;;;;5048349;28;20445;-50
2021/10/27 16:53:36;;;;;;;3.80;2.97;;;;;;;;;;5048094;28;20410;-48
2021/10/27 16:56:04;;;;;;;3.95;3.00;;;;;;;;;;5047136;28;20728;-51
2021/10/27 16:58:31;;;;;;;4.00;2.93;;;;;;;;;;5046287;28;20420;-52
2021/10/27 17:00:58;;;;;;;3.72;3.00;;;;;;;;;;5039155;28;20374;-51
2021/10/27 17:03:24;;;;;;;4.38;2.70;;;;;;;;;;5048032;28;20461;-52
2021/10/27 17:05:51;;;;;;;4.57;2.78;;;;;;;;;;5048355;28;20486;-50
2021/10/27 17:08:17;;;;;;;3.40;2.80;;;;;;;;;;5045110;28;20408;-50
2021/10/27 17:10:49;;;;;;;4.38;2.83;;;;;;;;;;5047903;28;20436;-49
2021/10/27 17:13:15;;;;;;;3.80;2.80;;;;;;;;;;5048021;28;20381;-48
2021/10/27 17:15:42;;;;;;;5.18;2.97;;;;;;;;;;5046949;28;20422;-48
2021/10/27 17:18:09;;;;;;;5.07;3.20;;;;;;;;;;5047703;28;20822;-51
2021/10/27 17:20:37;;;;;;;5.03;3.23;;;;;;;;;;5048294;28;20471;-50
2021/10/27 17:23:04;;;;;;;4.82;3.22;;;;;;;;;;5047132;28;20405;-48
2021/10/27 17:25:33;;;;;;;4.53;3.27;;;;;;;;;;5032210;28;20407;-47
2021/10/27 17:28:00;;;;;;;4.78;3.70;;;;;;;;;;5047892;28;20368;-51
2021/10/27 17:30:28;;;;;;;5.15;3.85;;;;;;;;;;5045952;28;20401;-51
2021/10/27 17:32:58;;;;;;;6.70;4.30;;;;;;;;;;5045044;28;20897;-46
2021/10/27 17:35:25;;;;;;;5.53;4.20;;;;;;;;;;5045533;28;20382;-48
2021/10/27 17:37:52;;;;;;;5.00;4.20;;;;;;;;;;5045043;28;20477;-45
2021/10/27 17:43:18;;;;;;;5.78;4.22;;;;;;;;;;5029927;28;20877;-48
2021/10/27 17:45:45;;;;;;;23.95;10.48;;;;;;;;;;5046983;28;20405;-48
2021/10/27 17:48:22;;;;;;;22.40;10.80;;;;;;;;;;5047295;28;20370;-45
2021/10/27 17:58:34;;;;;;;20.00;9.55;;;;;;;;;;5044135;28;20392;-48
2021/10/27 18:01:02;;;;;;;16.40;8.77;;;;;;;;;;5046704;28;20408;-48
2021/10/27 18:03:30;;;;;;;17.73;8.60;;;;;;;;;;5047237;28;20434;-50
2021/10/27 18:05:56;;;;;;;16.40;8.93;;;;;;;;;;5047111;28;20438;-48
2021/10/27 18:08:23;;;;;;;17.02;8.75;;;;;;;;;;5047157;28;20481;-46
2021/10/27 18:10:57;;;;;;;17.42;8.52;;;;;;;;;;5045520;28;20779;-47
2021/10/27 18:13:26;;;;;;;19.00;8.88;;;;;;;;;;5045979;28;20484;-47
2021/10/27 18:16:00;;;;;;;14.82;8.45;;;;;;;;;;5039858;28;20381;-47
2021/10/27 18:18:32;;;;;;;15.68;8.25;;;;;;;;;;5044882;28;20710;-46
2021/10/27 18:20:59;;;;;;;15.65;8.80;;;;;;;;;;5045264;28;20753;-45
2021/10/27 18:28:33;;;;;;;13.95;8.45;;;;;;;;;;5045209;28;20425;-47
2021/10/27 18:36:36;;;;;;;11.43;7.40;;;;;;;;;;5044459;28;20381;-47
2021/10/27 18:39:18;;;;;;;12.07;7.57;;;;;;;;;;5045155;28;20432;-45
2021/10/27 18:41:55;;;;;;;12.03;7.30;;;;;;;;;;5045138;28;20413;-47
2021/10/27 18:44:21;;;;;;;11.57;7.28;;;;;;;;;;5041921;28;20465;-46
2021/10/27 18:46:49;;;;;;;11.32;7.18;;;;;;;;;;5045604;28;20428;-46
2021/10/27 18:49:16;;;;;;;9.20;6.88;;;;;;;;;;5045511;28;20698;-48
2021/10/27 18:51:54;;;;;;;10.68;7.00;;;;;;;;;;5042370;28;21035;-47
2021/10/27 18:54:45;;;;;;;10.18;7.20;;;;;;;;;;5043673;28;20401;-47
2021/10/27 18:57:15;;;;;;;11.93;7.60;;;;;;;;;;5041026;28;20435;-47
2021/10/27 19:15:41;;;;;;;9.73;6.97;;;;;;;;;;5046172;28;20424;-47
2021/10/27 19:18:08;;;;;;;10.67;7.43;;;;;;;;;;5046020;28;20592;-46
2021/10/27 19:20:34;;;;;;;9.98;7.60;;;;;;;;;;5046085;28;20401;-46
2021/10/27 19:23:01;;;;;;;9.35;7.38;;;;;;;;;;5045942;28;20474;-46
2021/10/27 19:28:03;;;;;;;9.67;7.80;;;;;;;;;;5046479;28;20446;-45
